Torrington, Canada
Current Conditions -  °F | °C
As of 12:00 AM on Saturday 29 Nov 2014 (Local Time) from CYQF Reporting Station
Blowing Snow Blowing Snow  
Wind Chill: -37°   Ceiling: 9000
Heat Index: -11°   Visibility: 5mi
Dew Point: -18°   Wind: 21mph
Humidity: 70%   Direction: 330°NNW
Pressure: 29.79"   Gusts: NA
Location:  51.8°N, 113.6°W
Report Text: CYQF 290700Z 33018KT 5SM BLSN FEW030 BKN090 OVC200 M24/M28 A2979 RMK SC1AC4CI3 SLP181
Loading
Personal Weather Stations






























Interactive Weather Map New forecast layout! Learn more

10-Day Weather Forecast

Advertisements
Track Severe Weather on mobile